Haldimand, Canada
Current Conditions -  °F | °C
As of 7:00 PM on Sunday 23 Nov 2014 (Local Time) from CYHM Reporting Station
Overcast Overcast  
Wind Chill: 41°   Ceiling: 3200
Heat Index: 45°   Visibility: 15mi
Dew Point: 39°   Wind: 6mph
Humidity: 81%   Direction: 70°ENE
Pressure: 29.76"   Gusts: NA
Location:  42.99°N, 79.83°W
Report Text: CYHM 240000Z 07005KT 15SM BKN032 BKN100 OVC170 07/04 A2976 RMK SC5AC1AC2 SLP084
Loading
Personal Weather Stations






























Interactive Weather Map New forecast layout! Learn more

10-Day Weather Forecast

Advertisements
Track Severe Weather on mobile